sensor_id;sensor_type;location;lat;lon;timestamp;P1;durP1;ratioP1;P2;durP2;ratioP2
47715;SDS011;33476;50.984;3.538;2022-07-10T00:01:19;4.15;;;0.82;;
47715;SDS011;33476;50.984;3.538;2022-07-10T00:03:45;4.55;;;0.85;;
47715;SDS011;33476;50.984;3.538;2022-07-10T00:06:10;4.13;;;0.98;;
47715;SDS011;33476;50.984;3.538;2022-07-10T00:08:36;4.80;;;0.88;;
47715;SDS011;33476;50.984;3.538;2022-07-10T00:11:01;5.63;;;1.10;;
47715;SDS011;33476;50.984;3.538;2022-07-10T00:13:27;5.88;;;0.90;;
47715;SDS011;33476;50.984;3.538;2022-07-10T00:15:52;4.57;;;0.93;;
47715;SDS011;33476;50.984;3.538;2022-07-10T00:18:17;7.22;;;1.23;;
47715;SDS011;33476;50.984;3.538;2022-07-10T00:20:43;7.45;;;1.38;;
47715;SDS011;33476;50.984;3.538;2022-07-10T00:23:08;6.65;;;1.13;;
47715;SDS011;33476;50.984;3.538;2022-07-10T00:25:33;8.48;;;1.85;;
47715;SDS011;33476;50.984;3.538;2022-07-10T00:27:59;5.75;;;0.93;;
47715;SDS011;33476;50.984;3.538;2022-07-10T00:30:24;3.10;;;0.85;;
47715;SDS011;33476;50.984;3.538;2022-07-10T00:32:50;2.95;;;1.00;;
47715;SDS011;33476;50.984;3.538;2022-07-10T00:35:15;6.28;;;1.30;;
47715;SDS011;33476;50.984;3.538;2022-07-10T00:37:41;2.92;;;1.00;;
47715;SDS011;33476;50.984;3.538;2022-07-10T00:40:06;5.45;;;1.20;;
47715;SDS011;33476;50.984;3.538;2022-07-10T00:42:32;5.97;;;1.20;;
47715;SDS011;33476;50.984;3.538;2022-07-10T00:44:58;5.25;;;0.90;;
47715;SDS011;33476;50.984;3.538;2022-07-10T00:47:23;2.28;;;0.88;;
47715;SDS011;33476;50.984;3.538;2022-07-10T00:49:49;5.88;;;1.00;;
47715;SDS011;33476;50.984;3.538;2022-07-10T00:52:15;4.95;;;1.08;;
47715;SDS011;33476;50.984;3.538;2022-07-10T00:54:42;4.97;;;1.02;;
47715;SDS011;33476;50.984;3.538;2022-07-10T00:57:10;4.50;;;1.20;;
47715;SDS011;33476;50.984;3.538;2022-07-10T00:59:39;5.57;;;1.20;;
47715;SDS011;33476;50.984;3.538;2022-07-10T01:02:05;3.83;;;1.15;;
47715;SDS011;33476;50.984;3.538;2022-07-10T01:04:31;7.93;;;1.50;;
47715;SDS011;33476;50.984;3.538;2022-07-10T01:06:57;6.30;;;1.38;;
47715;SDS011;33476;50.984;3.538;2022-07-10T01:09:23;3.97;;;1.80;;
47715;SDS011;33476;50.984;3.538;2022-07-10T01:11:48;4.18;;;1.13;;
47715;SDS011;33476;50.984;3.538;2022-07-10T01:14:15;3.58;;;1.00;;
47715;SDS011;33476;50.984;3.538;2022-07-10T01:16:41;4.90;;;1.50;;
47715;SDS011;33476;50.984;3.538;2022-07-10T01:19:07;9.70;;;1.38;;
47715;SDS011;33476;50.984;3.538;2022-07-10T01:21:33;6.88;;;1.60;;
47715;SDS011;33476;50.984;3.538;2022-07-10T01:24:02;4.60;;;1.67;;
47715;SDS011;33476;50.984;3.538;2022-07-10T01:26:31;9.32;;;1.65;;
47715;SDS011;33476;50.984;3.538;2022-07-10T01:28:57;3.60;;;1.38;;
47715;SDS011;33476;50.984;3.538;2022-07-10T01:31:24;4.45;;;1.08;;
47715;SDS011;33476;50.984;3.538;2022-07-10T01:33:51;3.42;;;1.45;;
47715;SDS011;33476;50.984;3.538;2022-07-10T01:36:16;5.03;;;1.55;;
47715;SDS011;33476;50.984;3.538;2022-07-10T01:38:42;4.28;;;1.20;;
47715;SDS011;33476;50.984;3.538;2022-07-10T01:41:08;2.70;;;1.40;;
47715;SDS011;33476;50.984;3.538;2022-07-10T01:43:36;4.63;;;1.50;;
47715;SDS011;33476;50.984;3.538;2022-07-10T01:46:03;3.50;;;1.30;;
47715;SDS011;33476;50.984;3.538;2022-07-10T01:48:29;4.18;;;1.63;;
47715;SDS011;33476;50.984;3.538;2022-07-10T01:50:55;5.10;;;1.33;;
47715;SDS011;33476;50.984;3.538;2022-07-10T01:53:21;3.60;;;1.35;;
47715;SDS011;33476;50.984;3.538;2022-07-10T01:55:46;5.88;;;1.77;;
47715;SDS011;33476;50.984;3.538;2022-07-10T01:58:12;4.43;;;1.20;;
47715;SDS011;33476;50.984;3.538;2022-07-10T02:00:37;3.63;;;1.40;;
47715;SDS011;33476;50.984;3.538;2022-07-10T02:03:03;2.58;;;1.48;;
47715;SDS011;33476;50.984;3.538;2022-07-10T02:05:47;3.38;;;1.20;;
47715;SDS011;33476;50.984;3.538;2022-07-10T02:08:12;3.55;;;1.30;;
47715;SDS011;33476;50.984;3.538;2022-07-10T02:10:38;6.63;;;1.45;;
47715;SDS011;33476;50.984;3.538;2022-07-10T02:13:03;5.13;;;1.83;;
47715;SDS011;33476;50.984;3.538;2022-07-10T02:15:28;7.05;;;1.80;;
47715;SDS011;33476;50.984;3.538;2022-07-10T02:17:54;6.50;;;1.70;;
47715;SDS011;33476;50.984;3.538;2022-07-10T02:20:19;5.47;;;1.75;;
47715;SDS011;33476;50.984;3.538;2022-07-10T02:22:44;5.05;;;1.58;;
47715;SDS011;33476;50.984;3.538;2022-07-10T02:25:10;4.80;;;1.63;;
47715;SDS011;33476;50.984;3.538;2022-07-10T02:27:35;6.15;;;1.70;;
47715;SDS011;33476;50.984;3.538;2022-07-10T02:30:01;7.05;;;1.67;;
47715;SDS011;33476;50.984;3.538;2022-07-10T02:32:26;3.63;;;1.40;;
47715;SDS011;33476;50.984;3.538;2022-07-10T02:34:51;6.47;;;1.88;;
47715;SDS011;33476;50.984;3.538;2022-07-10T02:37:17;5.28;;;1.77;;
47715;SDS011;33476;50.984;3.538;2022-07-10T02:39:42;4.65;;;1.73;;
47715;SDS011;33476;50.984;3.538;2022-07-10T02:42:08;4.68;;;1.77;;
47715;SDS011;33476;50.984;3.538;2022-07-10T02:44:33;3.33;;;1.20;;
47715;SDS011;33476;50.984;3.538;2022-07-10T02:46:58;3.70;;;1.40;;
47715;SDS011;33476;50.984;3.538;2022-07-10T02:49:24;7.65;;;1.83;;
47715;SDS011;33476;50.984;3.538;2022-07-10T02:51:49;2.47;;;1.40;;
47715;SDS011;33476;50.984;3.538;2022-07-10T02:54:15;3.50;;;1.63;;
47715;SDS011;33476;50.984;3.538;2022-07-10T02:56:41;4.53;;;1.83;;
47715;SDS011;33476;50.984;3.538;2022-07-10T02:59:06;3.20;;;1.58;;
47715;SDS011;33476;50.984;3.538;2022-07-10T03:01:32;5.50;;;1.95;;
47715;SDS011;33476;50.984;3.538;2022-07-10T03:03:57;5.88;;;1.85;;
47715;SDS011;33476;50.984;3.538;2022-07-10T03:06:23;7.30;;;1.73;;
47715;SDS011;33476;50.984;3.538;2022-07-10T03:08:49;3.42;;;1.65;;
47715;SDS011;33476;50.984;3.538;2022-07-10T03:11:14;3.00;;;2.08;;
47715;SDS011;33476;50.984;3.538;2022-07-10T03:13:39;5.50;;;2.00;;
47715;SDS011;33476;50.984;3.538;2022-07-10T03:16:05;2.65;;;1.90;;
47715;SDS011;33476;50.984;3.538;2022-07-10T03:18:31;4.30;;;2.30;;
47715;SDS011;33476;50.984;3.538;2022-07-10T03:20:56;5.25;;;1.90;;
47715;SDS011;33476;50.984;3.538;2022-07-10T03:23:22;4.35;;;2.25;;
47715;SDS011;33476;50.984;3.538;2022-07-10T03:25:48;4.82;;;1.95;;
47715;SDS011;33476;50.984;3.538;2022-07-10T03:28:13;2.53;;;1.77;;
47715;SDS011;33476;50.984;3.538;2022-07-10T03:30:38;4.90;;;2.17;;
47715;SDS011;33476;50.984;3.538;2022-07-10T03:33:04;6.80;;;2.08;;
47715;SDS011;33476;50.984;3.538;2022-07-10T03:35:29;5.68;;;2.00;;
47715;SDS011;33476;50.984;3.538;2022-07-10T03:37:56;5.93;;;2.00;;
47715;SDS011;33476;50.984;3.538;2022-07-10T03:40:22;5.53;;;1.92;;
47715;SDS011;33476;50.984;3.538;2022-07-10T03:42:47;6.53;;;2.15;;
47715;SDS011;33476;50.984;3.538;2022-07-10T03:45:12;9.10;;;1.88;;
47715;SDS011;33476;50.984;3.538;2022-07-10T03:47:38;2.67;;;1.67;;
47715;SDS011;33476;50.984;3.538;2022-07-10T03:50:04;6.35;;;1.90;;
47715;SDS011;33476;50.984;3.538;2022-07-10T03:52:29;4.15;;;1.80;;
47715;SDS011;33476;50.984;3.538;2022-07-10T03:54:55;3.90;;;1.90;;
47715;SDS011;33476;50.984;3.538;2022-07-10T03:57:20;6.05;;;2.08;;
47715;SDS011;33476;50.984;3.538;2022-07-10T04:00:04;3.70;;;1.77;;
47715;SDS011;33476;50.984;3.538;2022-07-10T04:02:30;4.60;;;2.28;;
47715;SDS011;33476;50.984;3.538;2022-07-10T04:04:55;3.50;;;1.67;;
47715;SDS011;33476;50.984;3.538;2022-07-10T04:07:20;4.72;;;1.77;;
47715;SDS011;33476;50.984;3.538;2022-07-10T04:09:46;4.70;;;2.10;;
47715;SDS011;33476;50.984;3.538;2022-07-10T04:12:11;4.30;;;1.65;;
47715;SDS011;33476;50.984;3.538;2022-07-10T04:14:36;8.48;;;2.42;;
47715;SDS011;33476;50.984;3.538;2022-07-10T04:17:02;5.38;;;2.15;;
47715;SDS011;33476;50.984;3.538;2022-07-10T04:19:27;5.50;;;2.08;;
47715;SDS011;33476;50.984;3.538;2022-07-10T04:21:53;7.00;;;1.90;;
47715;SDS011;33476;50.984;3.538;2022-07-10T04:24:18;4.65;;;2.08;;
47715;SDS011;33476;50.984;3.538;2022-07-10T04:26:44;5.03;;;2.00;;
47715;SDS011;33476;50.984;3.538;2022-07-10T04:29:09;4.15;;;2.75;;
47715;SDS011;33476;50.984;3.538;2022-07-10T04:31:34;7.13;;;2.35;;
47715;SDS011;33476;50.984;3.538;2022-07-10T04:34:00;4.05;;;1.83;;
47715;SDS011;33476;50.984;3.538;2022-07-10T04:36:25;7.43;;;2.35;;
47715;SDS011;33476;50.984;3.538;2022-07-10T04:38:51;5.07;;;2.10;;
47715;SDS011;33476;50.984;3.538;2022-07-10T04:41:16;4.60;;;2.35;;
47715;SDS011;33476;50.984;3.538;2022-07-10T04:43:42;6.15;;;2.22;;
47715;SDS011;33476;50.984;3.538;2022-07-10T04:46:07;4.47;;;2.22;;
47715;SDS011;33476;50.984;3.538;2022-07-10T04:48:32;3.53;;;2.03;;
47715;SDS011;33476;50.984;3.538;2022-07-10T04:50:57;5.35;;;1.98;;
47715;SDS011;33476;50.984;3.538;2022-07-10T04:53:23;5.68;;;2.25;;
47715;SDS011;33476;50.984;3.538;2022-07-10T04:55:49;4.93;;;1.98;;
47715;SDS011;33476;50.984;3.538;2022-07-10T04:58:14;4.35;;;2.15;;
47715;SDS011;33476;50.984;3.538;2022-07-10T05:00:40;4.00;;;2.28;;
47715;SDS011;33476;50.984;3.538;2022-07-10T05:03:05;5.78;;;2.05;;
47715;SDS011;33476;50.984;3.538;2022-07-10T05:05:30;5.70;;;2.33;;
47715;SDS011;33476;50.984;3.538;2022-07-10T05:07:56;7.63;;;2.30;;
47715;SDS011;33476;50.984;3.538;2022-07-10T05:10:21;4.47;;;2.05;;
47715;SDS011;33476;50.984;3.538;2022-07-10T05:12:47;4.55;;;2.10;;
47715;SDS011;33476;50.984;3.538;2022-07-10T05:15:13;9.85;;;2.25;;
47715;SDS011;33476;50.984;3.538;2022-07-10T05:17:38;4.30;;;1.98;;
47715;SDS011;33476;50.984;3.538;2022-07-10T05:20:04;7.50;;;2.05;;
47715;SDS011;33476;50.984;3.538;2022-07-10T05:22:29;7.32;;;1.85;;
47715;SDS011;33476;50.984;3.538;2022-07-10T05:24:55;6.75;;;1.92;;
47715;SDS011;33476;50.984;3.538;2022-07-10T05:27:21;8.48;;;2.20;;
47715;SDS011;33476;50.984;3.538;2022-07-10T05:29:46;8.52;;;2.20;;
47715;SDS011;33476;50.984;3.538;2022-07-10T05:32:12;3.10;;;1.45;;
47715;SDS011;33476;50.984;3.538;2022-07-10T05:34:38;4.43;;;1.88;;
47715;SDS011;33476;50.984;3.538;2022-07-10T05:37:04;3.67;;;1.35;;
47715;SDS011;33476;50.984;3.538;2022-07-10T05:39:30;5.97;;;2.10;;
47715;SDS011;33476;50.984;3.538;2022-07-10T05:41:55;8.30;;;2.15;;
47715;SDS011;33476;50.984;3.538;2022-07-10T05:44:22;3.90;;;1.73;;
47715;SDS011;33476;50.984;3.538;2022-07-10T05:46:48;5.97;;;2.00;;
47715;SDS011;33476;50.984;3.538;2022-07-10T05:49:13;3.30;;;1.63;;
47715;SDS011;33476;50.984;3.538;2022-07-10T05:51:38;4.78;;;1.80;;
47715;SDS011;33476;50.984;3.538;2022-07-10T05:54:04;3.45;;;1.85;;
47715;SDS011;33476;50.984;3.538;2022-07-10T05:56:29;7.53;;;2.03;;
47715;SDS011;33476;50.984;3.538;2022-07-10T05:58:55;3.35;;;1.45;;
47715;SDS011;33476;50.984;3.538;2022-07-10T06:01:21;3.58;;;1.60;;
47715;SDS011;33476;50.984;3.538;2022-07-10T06:03:47;3.72;;;1.55;;
47715;SDS011;33476;50.984;3.538;2022-07-10T06:06:13;8.35;;;1.60;;
47715;SDS011;33476;50.984;3.538;2022-07-10T06:08:42;4.28;;;1.23;;
47715;SDS011;33476;50.984;3.538;2022-07-10T06:11:08;4.68;;;1.40;;
47715;SDS011;33476;50.984;3.538;2022-07-10T06:13:33;3.42;;;1.20;;
47715;SDS011;33476;50.984;3.538;2022-07-10T06:15:58;5.38;;;0.95;;
47715;SDS011;33476;50.984;3.538;2022-07-10T06:18:24;4.40;;;1.48;;
47715;SDS011;33476;50.984;3.538;2022-07-10T06:20:49;2.92;;;0.63;;
47715;SDS011;33476;50.984;3.538;2022-07-10T06:23:14;5.47;;;0.85;;
47715;SDS011;33476;50.984;3.538;2022-07-10T06:25:40;2.00;;;0.80;;
47715;SDS011;33476;50.984;3.538;2022-07-10T06:28:05;12.88;;;1.25;;
47715;SDS011;33476;50.984;3.538;2022-07-10T06:30:31;4.60;;;1.00;;
47715;SDS011;33476;50.984;3.538;2022-07-10T06:32:56;3.95;;;1.27;;
47715;SDS011;33476;50.984;3.538;2022-07-10T06:35:21;4.43;;;1.02;;
47715;SDS011;33476;50.984;3.538;2022-07-10T06:37:47;4.40;;;1.20;;
47715;SDS011;33476;50.984;3.538;2022-07-10T06:40:12;5.85;;;0.85;;
47715;SDS011;33476;50.984;3.538;2022-07-10T06:42:39;9.75;;;0.55;;
47715;SDS011;33476;50.984;3.538;2022-07-10T06:45:05;2.75;;;0.52;;
47715;SDS011;33476;50.984;3.538;2022-07-10T06:47:31;5.15;;;0.32;;
47715;SDS011;33476;50.984;3.538;2022-07-10T06:50:15;2.38;;;0.50;;
47715;SDS011;33476;50.984;3.538;2022-07-10T06:52:41;4.40;;;0.52;;
47715;SDS011;33476;50.984;3.538;2022-07-10T06:55:06;3.78;;;0.60;;
47715;SDS011;33476;50.984;3.538;2022-07-10T06:57:32;4.95;;;0.40;;
47715;SDS011;33476;50.984;3.538;2022-07-10T06:59:57;5.43;;;0.60;;
47715;SDS011;33476;50.984;3.538;2022-07-10T07:02:23;4.10;;;0.60;;
47715;SDS011;33476;50.984;3.538;2022-07-10T07:04:48;6.45;;;0.60;;
47715;SDS011;33476;50.984;3.538;2022-07-10T07:07:14;3.15;;;0.63;;
47715;SDS011;33476;50.984;3.538;2022-07-10T07:09:40;7.78;;;0.90;;
47715;SDS011;33476;50.984;3.538;2022-07-10T07:12:07;5.93;;;0.80;;
47715;SDS011;33476;50.984;3.538;2022-07-10T07:14:33;3.47;;;0.68;;
47715;SDS011;33476;50.984;3.538;2022-07-10T07:16:59;5.88;;;0.73;;
47715;SDS011;33476;50.984;3.538;2022-07-10T07:19:33;4.78;;;0.57;;
47715;SDS011;33476;50.984;3.538;2022-07-10T07:22:18;5.55;;;0.80;;
47715;SDS011;33476;50.984;3.538;2022-07-10T07:25:02;4.20;;;0.80;;
47715;SDS011;33476;50.984;3.538;2022-07-10T07:27:28;4.32;;;0.80;;
47715;SDS011;33476;50.984;3.538;2022-07-10T07:29:53;6.47;;;0.60;;
47715;SDS011;33476;50.984;3.538;2022-07-10T07:32:19;4.63;;;0.60;;
47715;SDS011;33476;50.984;3.538;2022-07-10T07:34:44;2.88;;;0.55;;
47715;SDS011;33476;50.984;3.538;2022-07-10T07:37:09;2.38;;;0.30;;
47715;SDS011;33476;50.984;3.538;2022-07-10T07:39:35;2.45;;;0.30;;
47715;SDS011;33476;50.984;3.538;2022-07-10T07:42:01;1.42;;;0.25;;
47715;SDS011;33476;50.984;3.538;2022-07-10T07:44:27;5.15;;;0.30;;
47715;SDS011;33476;50.984;3.538;2022-07-10T07:46:52;2.70;;;0.22;;
47715;SDS011;33476;50.984;3.538;2022-07-10T07:49:17;2.38;;;0.47;;
47715;SDS011;33476;50.984;3.538;2022-07-10T07:51:43;2.17;;;0.30;;
47715;SDS011;33476;50.984;3.538;2022-07-10T07:54:08;1.67;;;0.30;;
47715;SDS011;33476;50.984;3.538;2022-07-10T07:56:33;5.70;;;0.28;;
47715;SDS011;33476;50.984;3.538;2022-07-10T07:58:59;2.60;;;0.30;;
47715;SDS011;33476;50.984;3.538;2022-07-10T08:01:24;3.03;;;0.30;;
47715;SDS011;33476;50.984;3.538;2022-07-10T08:03:49;2.78;;;0.32;;
47715;SDS011;33476;50.984;3.538;2022-07-10T08:06:15;4.55;;;0.30;;
47715;SDS011;33476;50.984;3.538;2022-07-10T08:08:40;1.63;;;0.40;;
47715;SDS011;33476;50.984;3.538;2022-07-10T08:11:06;4.63;;;0.22;;
47715;SDS011;33476;50.984;3.538;2022-07-10T08:13:31;2.63;;;0.30;;
47715;SDS011;33476;50.984;3.538;2022-07-10T08:15:58;6.07;;;0.20;;
47715;SDS011;33476;50.984;3.538;2022-07-10T08:18:24;2.53;;;0.20;;
47715;SDS011;33476;50.984;3.538;2022-07-10T08:20:49;2.67;;;0.40;;
47715;SDS011;33476;50.984;3.538;2022-07-10T08:23:14;3.20;;;0.40;;
47715;SDS011;33476;50.984;3.538;2022-07-10T08:25:40;4.53;;;0.57;;
47715;SDS011;33476;50.984;3.538;2022-07-10T08:28:05;2.70;;;0.35;;
47715;SDS011;33476;50.984;3.538;2022-07-10T08:30:31;2.28;;;0.30;;
47715;SDS011;33476;50.984;3.538;2022-07-10T08:32:57;4.22;;;0.30;;
47715;SDS011;33476;50.984;3.538;2022-07-10T08:35:22;4.18;;;0.65;;
47715;SDS011;33476;50.984;3.538;2022-07-10T08:37:48;3.97;;;0.40;;
47715;SDS011;33476;50.984;3.538;2022-07-10T08:40:14;2.88;;;0.47;;
47715;SDS011;33476;50.984;3.538;2022-07-10T08:42:40;2.95;;;0.30;;
47715;SDS011;33476;50.984;3.538;2022-07-10T08:45:07;1.17;;;0.30;;
47715;SDS011;33476;50.984;3.538;2022-07-10T08:47:35;4.88;;;0.30;;
47715;SDS011;33476;50.984;3.538;2022-07-10T08:50:03;3.08;;;0.30;;
47715;SDS011;33476;50.984;3.538;2022-07-10T08:52:31;0.93;;;0.20;;
47715;SDS011;33476;50.984;3.538;2022-07-10T08:54:59;1.33;;;0.30;;
47715;SDS011;33476;50.984;3.538;2022-07-10T08:57:24;3.42;;;0.25;;
47715;SDS011;33476;50.984;3.538;2022-07-10T08:59:51;1.80;;;0.30;;
47715;SDS011;33476;50.984;3.538;2022-07-10T09:02:16;1.17;;;0.40;;
47715;SDS011;33476;50.984;3.538;2022-07-10T09:04:42;4.00;;;0.35;;
47715;SDS011;33476;50.984;3.538;2022-07-10T09:07:07;2.30;;;0.30;;
47715;SDS011;33476;50.984;3.538;2022-07-10T09:09:50;1.67;;;0.30;;
47715;SDS011;33476;50.984;3.538;2022-07-10T09:12:20;2.67;;;0.50;;
47715;SDS011;33476;50.984;3.538;2022-07-10T09:14:49;3.17;;;0.70;;
47715;SDS011;33476;50.984;3.538;2022-07-10T09:17:16;2.05;;;0.25;;
47715;SDS011;33476;50.984;3.538;2022-07-10T09:19:42;2.00;;;0.35;;
47715;SDS011;33476;50.984;3.538;2022-07-10T09:22:08;2.40;;;0.30;;
47715;SDS011;33476;50.984;3.538;2022-07-10T09:24:35;2.67;;;0.43;;
47715;SDS011;33476;50.984;3.538;2022-07-10T09:27:01;6.90;;;0.28;;
47715;SDS011;33476;50.984;3.538;2022-07-10T09:29:30;2.80;;;0.70;;
47715;SDS011;33476;50.984;3.538;2022-07-10T09:32:00;2.17;;;0.20;;
47715;SDS011;33476;50.984;3.538;2022-07-10T09:34:39;5.55;;;0.47;;
47715;SDS011;33476;50.984;3.538;2022-07-10T09:37:28;4.38;;;0.30;;
47715;SDS011;33476;50.984;3.538;2022-07-10T09:39:55;1.67;;;0.22;;
47715;SDS011;33476;50.984;3.538;2022-07-10T09:42:29;2.63;;;0.20;;
47715;SDS011;33476;50.984;3.538;2022-07-10T09:47:59;3.72;;;0.52;;
47715;SDS011;33476;50.984;3.538;2022-07-10T09:50:33;3.30;;;0.30;;
47715;SDS011;33476;50.984;3.538;2022-07-10T09:53:03;2.35;;;0.32;;
47715;SDS011;33476;50.984;3.538;2022-07-10T09:55:33;1.95;;;0.20;;
47715;SDS011;33476;50.984;3.538;2022-07-10T09:58:00;3.63;;;0.32;;
47715;SDS011;33476;50.984;3.538;2022-07-10T10:08:09;2.42;;;0.30;;
47715;SDS011;33476;50.984;3.538;2022-07-10T10:10:46;4.53;;;0.68;;
47715;SDS011;33476;50.984;3.538;2022-07-10T10:15:40;2.60;;;0.30;;
47715;SDS011;33476;50.984;3.538;2022-07-10T10:18:08;3.63;;;0.20;;
47715;SDS011;33476;50.984;3.538;2022-07-10T10:20:34;1.75;;;0.22;;
47715;SDS011;33476;50.984;3.538;2022-07-10T10:23:05;1.40;;;0.30;;
47715;SDS011;33476;50.984;3.538;2022-07-10T10:25:32;3.60;;;0.30;;
47715;SDS011;33476;50.984;3.538;2022-07-10T10:28:00;1.73;;;0.38;;
47715;SDS011;33476;50.984;3.538;2022-07-10T10:30:26;2.40;;;0.32;;
47715;SDS011;33476;50.984;3.538;2022-07-10T10:32:52;5.30;;;0.50;;
47715;SDS011;33476;50.984;3.538;2022-07-10T12:17:20;1.27;;;0.20;;
47715;SDS011;33476;50.984;3.538;2022-07-10T12:19:45;1.88;;;0.40;;
47715;SDS011;33476;50.984;3.538;2022-07-10T12:22:11;3.20;;;0.63;;
47715;SDS011;33476;50.984;3.538;2022-07-10T12:24:38;6.70;;;1.00;;
47715;SDS011;33476;50.984;3.538;2022-07-10T12:27:03;1.67;;;0.70;;
47715;SDS011;33476;50.984;3.538;2022-07-10T12:29:29;4.68;;;1.40;;
47715;SDS011;33476;50.984;3.538;2022-07-10T12:31:58;4.90;;;1.05;;
47715;SDS011;33476;50.984;3.538;2022-07-10T12:34:35;2.85;;;0.63;;
47715;SDS011;33476;50.984;3.538;2022-07-10T12:37:08;2.47;;;0.55;;
47715;SDS011;33476;50.984;3.538;2022-07-10T12:39:35;5.80;;;0.73;;
47715;SDS011;33476;50.984;3.538;2022-07-10T12:42:04;4.88;;;0.43;;
47715;SDS011;33476;50.984;3.538;2022-07-10T12:47:04;2.75;;;0.45;;
47715;SDS011;33476;50.984;3.538;2022-07-10T12:54:47;3.10;;;0.35;;
47715;SDS011;33476;50.984;3.538;2022-07-10T12:57:12;2.45;;;0.63;;
47715;SDS011;33476;50.984;3.538;2022-07-10T12:59:38;3.20;;;0.65;;
47715;SDS011;33476;50.984;3.538;2022-07-10T13:02:16;2.03;;;1.23;;
47715;SDS011;33476;50.984;3.538;2022-07-10T13:04:55;5.35;;;0.50;;
47715;SDS011;33476;50.984;3.538;2022-07-10T13:07:33;3.70;;;0.63;;
47715;SDS011;33476;50.984;3.538;2022-07-10T13:10:01;3.70;;;0.85;;
47715;SDS011;33476;50.984;3.538;2022-07-10T13:12:28;7.57;;;0.80;;
47715;SDS011;33476;50.984;3.538;2022-07-10T13:14:53;4.28;;;0.95;;
47715;SDS011;33476;50.984;3.538;2022-07-10T13:17:19;2.03;;;0.65;;
47715;SDS011;33476;50.984;3.538;2022-07-10T13:19:44;3.38;;;0.75;;
47715;SDS011;33476;50.984;3.538;2022-07-10T13:22:10;2.72;;;1.52;;
47715;SDS011;33476;50.984;3.538;2022-07-10T13:24:35;2.30;;;1.05;;
47715;SDS011;33476;50.984;3.538;2022-07-10T13:27:00;2.25;;;0.85;;
47715;SDS011;33476;50.984;3.538;2022-07-10T13:29:26;2.17;;;1.00;;
47715;SDS011;33476;50.984;3.538;2022-07-10T13:31:51;1.48;;;0.65;;
47715;SDS011;33476;50.984;3.538;2022-07-10T13:34:16;3.53;;;1.70;;
47715;SDS011;33476;50.984;3.538;2022-07-10T13:36:42;1.52;;;1.13;;
47715;SDS011;33476;50.984;3.538;2022-07-10T13:39:08;2.13;;;0.88;;
47715;SDS011;33476;50.984;3.538;2022-07-10T13:41:34;3.03;;;1.13;;
47715;SDS011;33476;50.984;3.538;2022-07-10T13:43:59;1.60;;;0.38;;
47715;SDS011;33476;50.984;3.538;2022-07-10T13:46:26;2.88;;;1.52;;
47715;SDS011;33476;50.984;3.538;2022-07-10T13:48:52;1.73;;;0.73;;
47715;SDS011;33476;50.984;3.538;2022-07-10T13:51:17;2.60;;;0.80;;
47715;SDS011;33476;50.984;3.538;2022-07-10T13:53:42;3.70;;;0.68;;
47715;SDS011;33476;50.984;3.538;2022-07-10T13:56:08;3.28;;;0.80;;
47715;SDS011;33476;50.984;3.538;2022-07-10T13:58:34;3.85;;;0.75;;
47715;SDS011;33476;50.984;3.538;2022-07-10T14:00:59;1.20;;;0.95;;
47715;SDS011;33476;50.984;3.538;2022-07-10T14:03:25;1.13;;;0.73;;
47715;SDS011;33476;50.984;3.538;2022-07-10T14:05:52;2.92;;;0.65;;
47715;SDS011;33476;50.984;3.538;2022-07-10T14:08:17;1.92;;;0.68;;
47715;SDS011;33476;50.984;3.538;2022-07-10T14:10:43;4.35;;;0.68;;
47715;SDS011;33476;50.984;3.538;2022-07-10T14:13:08;1.83;;;0.45;;
47715;SDS011;33476;50.984;3.538;2022-07-10T14:15:35;8.50;;;1.10;;
47715;SDS011;33476;50.984;3.538;2022-07-10T14:18:01;3.35;;;0.85;;
47715;SDS011;33476;50.984;3.538;2022-07-10T14:20:26;2.50;;;0.65;;
47715;SDS011;33476;50.984;3.538;2022-07-10T14:22:52;2.45;;;0.98;;
47715;SDS011;33476;50.984;3.538;2022-07-10T14:25:18;2.08;;;0.93;;
47715;SDS011;33476;50.984;3.538;2022-07-10T14:27:48;2.70;;;1.48;;
47715;SDS011;33476;50.984;3.538;2022-07-10T14:30:13;2.45;;;0.73;;
47715;SDS011;33476;50.984;3.538;2022-07-10T14:32:39;3.15;;;0.80;;
47715;SDS011;33476;50.984;3.538;2022-07-10T14:35:04;4.53;;;0.70;;
47715;SDS011;33476;50.984;3.538;2022-07-10T14:37:30;2.38;;;0.80;;
47715;SDS011;33476;50.984;3.538;2022-07-10T14:39:56;2.55;;;0.68;;
47715;SDS011;33476;50.984;3.538;2022-07-10T14:42:21;1.00;;;0.47;;
47715;SDS011;33476;50.984;3.538;2022-07-10T14:44:46;0.75;;;0.35;;
47715;SDS011;33476;50.984;3.538;2022-07-10T14:47:12;0.90;;;0.55;;
47715;SDS011;33476;50.984;3.538;2022-07-10T14:49:37;0.63;;;0.28;;
47715;SDS011;33476;50.984;3.538;2022-07-10T14:52:03;2.15;;;0.57;;
47715;SDS011;33476;50.984;3.538;2022-07-10T14:54:29;1.73;;;0.57;;
47715;SDS011;33476;50.984;3.538;2022-07-10T14:56:54;2.72;;;0.63;;
47715;SDS011;33476;50.984;3.538;2022-07-10T14:59:21;11.23;;;1.02;;
47715;SDS011;33476;50.984;3.538;2022-07-10T15:01:46;3.97;;;0.57;;
47715;SDS011;33476;50.984;3.538;2022-07-10T15:04:11;1.40;;;0.28;;
47715;SDS011;33476;50.984;3.538;2022-07-10T15:06:37;2.03;;;0.68;;
47715;SDS011;33476;50.984;3.538;2022-07-10T15:09:02;2.60;;;0.65;;
47715;SDS011;33476;50.984;3.538;2022-07-10T15:11:28;1.90;;;1.10;;
47715;SDS011;33476;50.984;3.538;2022-07-10T15:13:54;5.18;;;1.13;;
47715;SDS011;33476;50.984;3.538;2022-07-10T15:16:24;0.63;;;0.52;;
47715;SDS011;33476;50.984;3.538;2022-07-10T15:18:51;1.20;;;0.40;;
47715;SDS011;33476;50.984;3.538;2022-07-10T15:21:17;1.08;;;0.63;;
47715;SDS011;33476;50.984;3.538;2022-07-10T15:23:42;0.70;;;0.40;;
47715;SDS011;33476;50.984;3.538;2022-07-10T15:26:07;0.60;;;0.60;;
47715;SDS011;33476;50.984;3.538;2022-07-10T15:28:33;1.33;;;0.80;;
47715;SDS011;33476;50.984;3.538;2022-07-10T15:30:59;1.48;;;0.60;;
47715;SDS011;33476;50.984;3.538;2022-07-10T15:33:26;2.45;;;1.00;;
47715;SDS011;33476;50.984;3.538;2022-07-10T15:35:51;0.57;;;0.43;;
47715;SDS011;33476;50.984;3.538;2022-07-10T15:38:17;1.25;;;0.70;;
47715;SDS011;33476;50.984;3.538;2022-07-10T15:40:42;2.10;;;0.93;;
47715;SDS011;33476;50.984;3.538;2022-07-10T15:43:08;2.28;;;1.15;;
47715;SDS011;33476;50.984;3.538;2022-07-10T15:45:34;0.85;;;0.45;;
47715;SDS011;33476;50.984;3.538;2022-07-10T15:47:59;1.10;;;0.73;;
47715;SDS011;33476;50.984;3.538;2022-07-10T15:50:25;3.25;;;0.40;;
47715;SDS011;33476;50.984;3.538;2022-07-10T15:52:50;1.85;;;0.77;;
47715;SDS011;33476;50.984;3.538;2022-07-10T15:55:15;2.33;;;1.35;;
47715;SDS011;33476;50.984;3.538;2022-07-10T15:57:41;2.63;;;0.65;;
47715;SDS011;33476;50.984;3.538;2022-07-10T16:00:07;2.97;;;0.52;;
47715;SDS011;33476;50.984;3.538;2022-07-10T16:02:34;1.58;;;1.20;;
47715;SDS011;33476;50.984;3.538;2022-07-10T16:05:00;0.47;;;0.30;;
47715;SDS011;33476;50.984;3.538;2022-07-10T16:07:25;1.20;;;0.98;;
47715;SDS011;33476;50.984;3.538;2022-07-10T16:09:51;1.70;;;0.45;;
47715;SDS011;33476;50.984;3.538;2022-07-10T16:12:16;0.60;;;0.25;;
47715;SDS011;33476;50.984;3.538;2022-07-10T16:14:41;1.20;;;0.43;;
47715;SDS011;33476;50.984;3.538;2022-07-10T16:17:07;1.00;;;0.52;;
47715;SDS011;33476;50.984;3.538;2022-07-10T16:19:32;0.55;;;0.32;;
47715;SDS011;33476;50.984;3.538;2022-07-10T16:21:58;2.15;;;0.50;;
47715;SDS011;33476;50.984;3.538;2022-07-10T16:24:23;1.55;;;0.38;;
47715;SDS011;33476;50.984;3.538;2022-07-10T16:26:49;4.47;;;0.73;;
47715;SDS011;33476;50.984;3.538;2022-07-10T16:29:15;0.90;;;0.57;;
47715;SDS011;33476;50.984;3.538;2022-07-10T16:31:40;0.93;;;0.68;;
47715;SDS011;33476;50.984;3.538;2022-07-10T16:34:08;3.60;;;0.60;;
47715;SDS011;33476;50.984;3.538;2022-07-10T16:36:33;2.10;;;0.65;;
47715;SDS011;33476;50.984;3.538;2022-07-10T16:38:59;0.88;;;0.80;;
47715;SDS011;33476;50.984;3.538;2022-07-10T16:41:24;1.20;;;0.43;;
47715;SDS011;33476;50.984;3.538;2022-07-10T16:43:51;0.82;;;0.40;;
47715;SDS011;33476;50.984;3.538;2022-07-10T16:46:16;1.20;;;0.90;;